Time;durP1;ratioP1;P1;durP2;ratioP2;P2;SDS_P1;SDS_P2;PMS_P1;PMS_P2;Temp;Humidity;BMP_temperature;BMP_pressure;BME280_temperature;BME280_humidity;BME280_pressure;Samples;Min_cycle;Max_cycle;Signal;HPM_P1;HPM_P2
2022/10/24 00:01:07;;;;;;;53.25;50.22;;;;;;;15.45;72.82;101630.28;5014482;28;103966;-53
2022/10/24 00:03:33;;;;;;;54.13;51.05;;;;;;;15.45;72.55;101631.09;5004149;28;102481;-53
2022/10/24 00:06:06;;;;;;;56.30;53.10;;;;;;;15.44;72.86;101632.22;5013383;28;103552;-53
2022/10/24 00:08:33;;;;;;;59.27;55.97;;;;;;;15.44;73.04;101632.22;5021223;28;102570;-53
2022/10/24 00:11:10;;;;;;;58.20;54.92;;;;;;;15.43;72.60;101627.81;5025403;28;104426;-54
2022/10/24 00:13:38;;;;;;;59.78;56.50;;;;;;;15.44;72.66;101632.22;5035476;27;102063;-54
2022/10/24 00:16:11;;;;;;;60.08;56.67;;;;;;;15.45;72.69;101633.84;5032904;27;103523;-53
2022/10/24 00:18:39;;;;;;;53.97;50.97;;;;;;;15.43;72.55;101630.53;5026288;27;102115;-53
2022/10/24 00:21:07;;;;;;;66.55;62.90;;;;;;;15.45;72.88;101633.03;5024741;27;104102;-54
2022/10/24 00:23:35;;;;;;;57.65;54.35;;;;;;;15.45;72.74;101633.03;5035121;27;102755;-53
2022/10/24 00:26:03;;;;;;;61.67;58.17;;;;;;;15.44;72.65;101637.69;5034321;27;102370;-53
2022/10/24 00:28:30;;;;;;;55.30;52.20;;;;;;;15.44;72.38;101632.22;5035165;27;102447;-53
2022/10/24 00:30:56;;;;;;;59.53;56.20;;;;;;;15.43;72.57;101636.03;5032217;27;104060;-54
2022/10/24 00:33:25;;;;;;;58.72;55.33;;;;;;;15.45;72.77;101628.34;5025394;27;102160;-53
2022/10/24 00:35:53;;;;;;;57.70;54.50;;;;;;;15.44;72.59;101632.22;5020283;28;102583;-53
2022/10/24 00:38:20;;;;;;;59.80;56.53;;;;;;;15.43;72.77;101619.56;5024433;27;102364;-53
2022/10/24 00:40:47;;;;;;;65.95;62.35;;;;;;;15.43;72.60;101625.06;5029564;28;104046;-53
2022/10/24 00:43:14;;;;;;;60.28;56.95;;;;;;;15.43;72.49;101625.06;5025994;27;102276;-53
2022/10/24 00:45:46;;;;;;;55.87;52.67;;;;;;;15.44;72.81;101623.16;5020857;27;102389;-53
2022/10/24 00:48:18;;;;;;;65.55;61.90;;;;;;;15.44;72.78;101626.72;5016481;27;102511;-54
2022/10/24 00:50:48;;;;;;;60.90;57.47;;;;;;;15.43;72.52;101624.25;5019748;28;103851;-54
2022/10/24 00:53:15;;;;;;;56.58;53.38;;;;;;;15.44;72.54;101632.22;5016925;28;102344;-53
2022/10/24 00:55:45;;;;;;;62.60;59.10;;;;;;;15.44;72.22;101621.22;5033957;27;102335;-54
2022/10/24 00:58:13;;;;;;;60.30;56.97;;;;;;;15.44;72.36;101626.72;5034473;27;102475;-54
2022/10/24 01:00:40;;;;;;;;;;;;;;;15.45;72.47;101627.53;5023604;27;103926;-54
2022/10/24 01:03:09;;;;;;;51.65;48.70;;;;;;;15.44;72.62;101626.72;5030208;27;102203;-53
2022/10/24 01:05:50;;;;;;;52.50;49.47;;;;;;;15.43;72.60;101630.53;5027242;27;102345;-53
2022/10/24 01:08:26;;;;;;;53.15;50.05;;;;;;;15.42;72.62;101628.91;5014452;28;103059;-53
2022/10/24 01:11:02;;;;;;;59.63;56.33;;;;;;;15.43;72.83;101625.06;5013115;28;103960;-54
2022/10/24 01:13:37;;;;;;;56.10;52.97;;;;;;;15.43;72.74;101625.06;5014665;28;102525;-53
2022/10/24 01:16:10;;;;;;;58.83;55.58;;;;;;;15.43;72.47;101630.53;5016320;27;102087;-53
2022/10/24 01:18:46;;;;;;;59.70;56.30;;;;;;;15.43;72.68;101629.72;5025429;27;102054;-54
2022/10/24 01:21:25;;;;;;;57.85;54.60;;;;;;;15.44;72.46;101626.72;5007153;27;104269;-54
2022/10/24 01:24:12;;;;;;;56.25;53.15;;;;;;;15.44;72.80;101620.41;5008690;28;102496;-54
2022/10/24 01:27:03;;;;;;;60.80;57.47;;;;;;;15.44;72.66;101615.75;4997832;28;102179;-54
2022/10/24 01:29:47;;;;;;;60.45;57.05;;;;;;;15.43;72.86;101625.06;5009184;28;102155;-53
2022/10/24 01:32:22;;;;;;;60.25;56.88;;;;;;;15.43;72.35;101619.56;4998374;28;103868;-54
2022/10/24 01:34:59;;;;;;;55.25;52.20;;;;;;;15.43;72.90;101625.06;5013107;28;102222;-54
2022/10/24 01:37:34;;;;;;;56.80;53.70;;;;;;;15.43;72.55;101630.53;5016748;28;102200;-54
2022/10/24 01:40:06;;;;;;;57.88;54.58;;;;;;;15.43;72.71;101625.06;5014666;28;102355;-53
2022/10/24 01:42:37;;;;;;;58.47;55.22;;;;;;;15.42;72.63;101623.41;5016393;28;104195;-53
2022/10/24 01:45:09;;;;;;;58.78;55.53;;;;;;;15.43;72.71;101630.53;5017191;28;102263;-53
2022/10/24 01:47:41;;;;;;;58.15;54.97;;;;;;;15.44;72.43;101632.22;5007387;28;102351;-53
2022/10/24 01:50:10;;;;;;;56.65;53.50;;;;;;;15.44;72.49;101625.91;5029131;27;102714;-53
2022/10/24 01:52:41;;;;;;;55.33;52.20;;;;;;;15.44;72.84;101632.22;5030058;27;103961;-54
2022/10/24 01:55:09;;;;;;;61.25;57.85;;;;;;;15.43;72.67;101638.78;5014245;28;102386;-53
2022/10/24 01:57:35;;;;;;;57.80;54.63;;;;;;;15.44;72.72;101643.19;5033313;27;102314;-53
2022/10/24 02:00:07;;;;;;;54.03;50.97;;;;;;;15.44;72.89;101645.91;5031304;27;104067;-54
2022/10/24 02:02:38;;;;;;;58.83;55.53;;;;;;;15.43;72.45;101647.00;5023100;27;103998;-53
2022/10/24 02:05:11;;;;;;;56.22;53.05;;;;;;;15.44;72.68;101651.41;5013193;27;102428;-54
2022/10/24 02:07:40;;;;;;;62.95;59.47;;;;;;;15.43;72.47;101647.00;5004996;28;102308;-54
2022/10/24 02:10:14;;;;;;;57.05;53.85;;;;;;;15.43;72.79;101648.94;5034290;27;102098;-53
2022/10/24 02:12:45;;;;;;;58.65;55.33;;;;;;;15.43;72.41;101652.47;5007110;28;107371;-54
2022/10/24 02:15:18;;;;;;;55.13;52.10;;;;;;;15.43;72.78;101652.47;5036351;27;102298;-54
2022/10/24 02:17:46;;;;;;;62.75;59.22;;;;;;;15.43;72.64;101657.97;5036969;27;102299;-54
2022/10/24 02:20:13;;;;;;;56.80;53.63;;;;;;;15.42;72.54;101656.34;5037313;27;102024;-54
2022/10/24 02:22:46;;;;;;;58.40;55.20;;;;;;;15.44;72.77;101656.88;5025663;27;104141;-54
2022/10/24 02:25:20;;;;;;;56.25;53.03;;;;;;;15.43;72.62;101657.16;5023991;27;102477;-53
2022/10/24 02:27:51;;;;;;;60.05;56.78;;;;;;;15.44;72.51;101658.81;5035114;27;102197;-54
2022/10/24 02:30:25;;;;;;;56.67;53.47;;;;;;;15.43;72.79;101668.94;5019103;28;102285;-53
2022/10/24 02:32:56;;;;;;;57.63;54.47;;;;;;;15.42;72.50;101667.31;5026567;27;104087;-54
2022/10/24 02:35:26;;;;;;;57.83;54.60;;;;;;;15.44;72.90;101664.31;5021580;28;102085;-53
2022/10/24 02:37:57;;;;;;;62.70;59.25;;;;;;;15.44;72.55;101673.34;5022367;28;102353;-54
2022/10/24 02:40:24;;;;;;;56.72;53.55;;;;;;;15.43;72.52;101668.94;5022255;28;102499;-53
2022/10/24 02:42:57;;;;;;;59.75;56.45;;;;;;;15.42;72.77;101675.53;5031145;27;104384;-54
2022/10/24 02:45:26;;;;;;;60.45;56.95;;;;;;;15.43;72.82;101684.59;5032373;27;101992;-54
2022/10/24 02:47:58;;;;;;;55.63;52.42;;;;;;;15.43;72.43;101674.44;5032495;27;102393;-53
2022/10/24 02:50:25;;;;;;;57.17;54.08;;;;;;;15.42;72.53;101681.03;5038056;27;102234;-53
2022/10/24 02:52:51;;;;;;;57.70;54.42;;;;;;;15.44;72.54;101681.59;5028741;27;103924;-54
2022/10/24 02:55:18;;;;;;;55.33;52.25;;;;;;;15.43;72.70;101670.88;5036036;27;102269;-53
2022/10/24 02:57:45;;;;;;;61.40;58.00;;;;;;;15.43;72.41;101685.41;5036037;27;104401;-53
2022/10/24 03:00:12;;;;;;;57.45;54.28;;;;;;;15.43;72.77;101685.41;5036999;27;102333;-54
2022/10/24 03:02:40;;;;;;;59.45;56.15;;;;;;;15.43;72.95;101693.63;5018490;27;103937;-53
2022/10/24 03:05:07;;;;;;;57.80;54.60;;;;;;;15.42;72.77;101689.25;5029995;27;102263;-54
2022/10/24 03:07:33;;;;;;;59.30;56.00;;;;;;;15.42;72.67;101681.03;5026179;27;102320;-53
2022/10/24 03:10:01;;;;;;;55.78;52.70;;;;;;;15.42;72.46;101686.50;5021503;27;102151;-53
2022/10/24 03:12:27;;;;;;;61.95;58.58;;;;;;;15.43;72.61;101679.91;5032988;27;104102;-53
2022/10/24 03:14:54;;;;;;;56.22;53.13;;;;;;;15.42;72.76;101689.25;5017741;28;102238;-54
2022/10/24 03:17:22;;;;;;;64.03;60.53;;;;;;;15.44;72.56;101686.25;5026760;27;102197;-54
2022/10/24 03:20:04;;;;;;;57.13;54.03;;;;;;;15.42;72.74;101689.25;5024843;27;102509;-53
2022/10/24 03:22:30;;;;;;;;;;;;;;;15.42;72.47;101689.25;5016962;28;104075;-53
2022/10/24 03:25:00;;;;;;;54.80;51.80;;;;;;;15.44;72.40;101692.56;5026841;28;102890;-54
2022/10/24 03:27:28;;;;;;;55.97;52.88;;;;;;;15.44;72.56;101689.00;5024503;27;102671;-54
2022/10/24 03:29:54;;;;;;;52.42;49.50;;;;;;;15.43;72.56;101693.63;5019448;27;102413;-54
2022/10/24 03:32:21;;;;;;;54.42;51.42;;;;;;;15.43;72.44;101692.81;5026825;28;103830;-53
2022/10/24 03:34:48;;;;;;;60.03;56.63;;;;;;;15.43;72.85;101701.03;5023862;27;102108;-53
2022/10/24 03:37:16;;;;;;;57.15;54.08;;;;;;;15.43;72.66;101696.38;5029464;27;102190;-58
2022/10/24 03:39:43;;;;;;;60.47;57.10;;;;;;;15.42;72.94;101692.00;5017460;28;102238;-54
2022/10/24 03:42:10;;;;;;;65.95;62.20;;;;;;;15.42;72.64;101693.94;5017359;28;103926;-54
2022/10/24 03:44:36;;;;;;;59.35;56.10;;;;;;;15.42;72.82;101692.00;5030922;27;102389;-54
2022/10/24 03:47:03;;;;;;;58.95;55.67;;;;;;;15.43;72.94;101690.06;5030389;27;102227;-53
2022/10/24 03:49:31;;;;;;;62.97;59.50;;;;;;;15.42;72.65;101692.00;5031435;27;102312;-54
2022/10/24 03:51:57;;;;;;;60.55;57.30;;;;;;;15.42;72.87;101699.41;5034555;27;103829;-54
2022/10/24 03:54:25;;;;;;;65.28;61.75;;;;;;;15.43;72.49;101701.88;5035124;27;102187;-54
2022/10/24 03:56:51;;;;;;;53.25;50.33;;;;;;;15.42;72.54;101700.22;5033918;27;102163;-53
2022/10/24 03:59:18;;;;;;;58.88;55.65;;;;;;;15.43;72.53;101701.03;5019080;27;102670;-53
2022/10/24 04:01:45;;;;;;;63.88;60.42;;;;;;;15.43;72.56;101706.53;5031827;27;104005;-53
2022/10/24 04:04:12;;;;;;;59.85;56.58;;;;;;;15.43;72.86;101712.84;5035475;27;101975;-54
2022/10/24 04:06:39;;;;;;;61.17;57.83;;;;;;;15.43;72.61;101701.88;5025814;27;103146;-53
2022/10/24 04:09:06;;;;;;;59.85;56.63;;;;;;;15.42;72.89;101702.97;5031591;27;102508;-53
2022/10/24 04:11:36;;;;;;;57.17;54.08;;;;;;;15.43;72.72;101707.34;5034987;27;104160;-54
2022/10/24 04:14:02;;;;;;;60.63;57.33;;;;;;;15.42;72.82;101719.44;5025258;27;102300;-54
2022/10/24 04:16:31;;;;;;;58.65;55.40;;;;;;;15.42;72.59;101716.69;5027509;27;102084;-54
2022/10/24 04:19:00;;;;;;;60.20;56.92;;;;;;;15.44;72.60;101725.47;5035777;27;103658;-54
2022/10/24 04:21:26;;;;;;;57.60;54.45;;;;;;;15.42;72.47;101716.69;5023706;27;103833;-53
2022/10/24 04:23:53;;;;;;;62.42;59.10;;;;;;;15.42;72.29;101705.72;5015931;28;102483;-53
2022/10/24 04:26:19;;;;;;;60.92;57.63;;;;;;;15.43;72.46;101714.75;5033616;27;102138;-54
2022/10/24 04:28:48;;;;;;;63.30;59.85;;;;;;;15.43;72.47;101712.03;5034488;27;102303;-53
2022/10/24 04:31:15;;;;;;;63.00;59.53;;;;;;;15.42;72.48;101711.19;5020572;28;103948;-54
2022/10/24 04:33:41;;;;;;;60.22;56.90;;;;;;;15.42;72.79;101716.69;5027184;27;102320;-53
2022/10/24 04:36:08;;;;;;;61.08;57.65;;;;;;;15.42;72.47;101713.13;5022189;27;102870;-54
2022/10/24 04:38:35;;;;;;;58.72;55.33;;;;;;;15.42;72.53;101710.38;5032196;27;102947;-53
2022/10/24 04:41:01;;;;;;;63.97;60.55;;;;;;;15.43;72.82;101712.03;5029011;27;105125;-54
2022/10/24 04:43:29;;;;;;;59.30;56.05;;;;;;;15.42;72.83;101722.19;5033546;27;102127;-53
2022/10/24 04:45:56;;;;;;;53.88;50.92;;;;;;;15.42;73.04;101718.63;5034096;27;102494;-53
2022/10/24 04:48:26;;;;;;;57.38;54.33;;;;;;;15.42;72.42;101722.19;5019616;28;102497;-54
2022/10/24 04:50:53;;;;;;;61.50;58.10;;;;;;;15.42;72.48;101727.66;5026370;27;104130;-53
2022/10/24 04:53:19;;;;;;;62.75;59.38;;;;;;;15.42;72.57;101726.84;5027866;28;102486;-53
2022/10/24 04:55:45;;;;;;;56.97;53.85;;;;;;;15.43;72.50;101728.47;5028778;27;102684;-54
2022/10/24 04:58:12;;;;;;;58.28;54.97;;;;;;;15.41;72.40;101728.78;5018051;28;102149;-54
2022/10/24 05:00:42;;;;;;;58.15;54.85;;;;;;;15.43;72.34;101733.97;5004019;28;104065;-54
2022/10/24 05:03:09;;;;;;;61.47;58.17;;;;;;;15.43;72.66;101723.00;5008081;28;103615;-55
2022/10/24 05:05:36;;;;;;;55.28;52.15;;;;;;;15.42;72.41;101730.41;5008090;28;102245;-54
2022/10/24 05:08:02;;;;;;;54.97;51.97;;;;;;;15.42;72.30;101735.88;5005815;28;102172;-53
2022/10/24 05:10:32;;;;;;;61.58;58.25;;;;;;;15.43;72.44;101726.53;5012846;28;104170;-53
2022/10/24 05:13:13;;;;;;;59.00;55.70;;;;;;;15.46;72.60;101727.91;5011902;28;102067;-53
2022/10/24 05:15:39;;;;;;;63.47;60.00;;;;;;;15.45;72.73;101735.34;4994924;28;102397;-54
2022/10/24 05:18:06;;;;;;;61.92;58.53;;;;;;;15.44;72.77;101730.97;5013442;28;102272;-53
2022/10/24 05:20:36;;;;;;;62.45;59.20;;;;;;;15.45;72.53;101738.06;5008492;28;104069;-54
2022/10/24 05:23:02;;;;;;;62.92;59.60;;;;;;;15.44;72.33;101736.44;4998368;28;102708;-53
2022/10/24 05:25:29;;;;;;;63.53;60.03;;;;;;;15.44;72.64;101741.94;4993932;28;101903;-53
2022/10/24 05:27:57;;;;;;;58.38;55.25;;;;;;;15.44;72.37;101736.44;5014089;28;102232;-53
2022/10/24 05:30:24;;;;;;;59.55;56.25;;;;;;;15.45;72.34;101738.06;4995023;28;103966;-53
2022/10/24 05:32:50;;;;;;;58.75;55.58;;;;;;;15.44;72.59;101739.19;5009213;28;102260;-53
2022/10/24 05:35:17;;;;;;;57.78;54.67;;;;;;;15.45;72.54;101732.59;5003019;28;102987;-53
2022/10/24 05:37:45;;;;;;;61.60;58.28;;;;;;;15.45;72.55;101732.59;5016024;27;102270;-54
2022/10/24 05:40:12;;;;;;;;;;;;;;;15.45;72.52;101746.31;5002858;27;103869;-54
2022/10/24 05:42:40;;;;;;;53.42;50.45;;;;;;;15.45;72.36;101742.75;5013341;28;102220;-53
2022/10/24 05:45:08;;;;;;;54.85;51.83;;;;;;;15.45;72.48;101740.00;5032386;27;102045;-53
2022/10/24 05:47:35;;;;;;;64.70;61.25;;;;;;;15.46;72.57;101745.19;5021532;27;102267;-53
2022/10/24 05:50:01;;;;;;;58.95;55.75;;;;;;;15.44;72.53;101741.13;5015344;28;104156;-54
2022/10/24 05:52:28;;;;;;;59.45;56.20;;;;;;;15.45;72.48;101742.75;5028287;28;102489;-53
2022/10/24 05:54:56;;;;;;;59.70;56.42;;;;;;;15.44;72.63;101741.94;5025352;27;102175;-53
2022/10/24 05:57:23;;;;;;;;;;;;;;;15.45;72.65;101746.31;5019974;28;102828;-53
2022/10/24 05:59:50;;;;;;;48.40;45.70;;;;;;;15.45;72.52;101740.81;5006394;28;108066;-54
2022/10/24 06:02:18;;;;;;;61.55;58.20;;;;;;;15.44;72.26;101741.94;5002119;28;102626;-54
2022/10/24 06:04:44;;;;;;;62.08;58.72;;;;;;;15.46;72.48;101749.88;5012171;28;102396;-54
2022/10/24 06:07:11;;;;;;;56.63;53.53;;;;;;;15.47;72.40;101746.00;5012838;28;102347;-54
2022/10/24 06:09:41;;;;;;;60.22;57.00;;;;;;;15.45;72.59;101743.56;5012674;28;103862;-53
2022/10/24 06:12:09;;;;;;;67.03;63.42;;;;;;;15.47;72.95;101740.53;4998892;28;102276;-54
2022/10/24 06:14:39;;;;;;;57.72;54.63;;;;;;;15.47;72.88;101738.63;5006836;28;102397;-53
2022/10/24 06:17:08;;;;;;;58.35;55.22;;;;;;;15.47;72.85;101740.53;4997929;28;102676;-53
2022/10/24 06:19:35;;;;;;;56.80;53.63;;;;;;;15.48;72.92;101737.53;5012089;28;103797;-53
2022/10/24 06:22:02;;;;;;;53.88;50.92;;;;;;;15.47;72.85;101746.88;5012907;28;102751;-53
2022/10/24 06:24:29;;;;;;;56.47;53.42;;;;;;;15.47;72.61;101738.63;5011362;28;102058;-54
2022/10/24 06:26:55;;;;;;;56.03;53.03;;;;;;;15.46;72.84;101736.97;5017850;28;102384;-53
2022/10/24 06:29:25;;;;;;;53.70;50.80;;;;;;;15.47;72.43;101735.88;5011706;28;104034;-54
2022/10/24 06:31:51;;;;;;;55.88;52.88;;;;;;;15.47;72.34;101735.88;5001175;28;102285;-53
2022/10/24 06:34:19;;;;;;;58.13;54.97;;;;;;;15.49;72.68;101732.84;5012716;28;102705;-53
2022/10/24 06:36:45;;;;;;;54.90;51.88;;;;;;;15.51;72.37;101742.47;5010197;28;102438;-53
2022/10/24 06:39:12;;;;;;;58.92;55.63;;;;;;;15.50;72.50;101735.31;5013492;28;103986;-54
2022/10/24 06:41:38;;;;;;;58.50;55.38;;;;;;;15.52;72.58;101733.13;5004920;28;102443;-54
2022/10/24 06:44:04;;;;;;;58.05;54.70;;;;;;;15.52;72.79;101738.59;5011559;28;102477;-54
2022/10/24 06:46:32;;;;;;;60.33;57.03;;;;;;;15.53;72.71;101751.22;5006161;28;102344;-54
2022/10/24 06:48:59;;;;;;;62.65;59.22;;;;;;;15.55;72.32;101739.97;5013498;28;103930;-53
2022/10/24 06:51:26;;;;;;;55.90;52.80;;;;;;;15.55;72.51;101746.28;5015037;28;102176;-54
2022/10/24 06:53:52;;;;;;;56.63;53.58;;;;;;;15.57;72.39;101740.50;5022174;27;102381;-54
2022/10/24 06:56:20;;;;;;;58.30;55.15;;;;;;;15.58;72.59;101747.66;5016694;28;102530;-53
2022/10/24 06:58:50;;;;;;;54.83;51.80;;;;;;;15.57;72.74;101730.34;5018590;27;105072;-54
2022/10/24 07:01:19;;;;;;;52.30;49.25;;;;;;;15.58;72.29;101737.50;5009666;28;102474;-54
2022/10/24 07:03:48;;;;;;;59.40;56.20;;;;;;;15.57;72.29;101741.31;5007853;28;102402;-54
2022/10/24 07:06:17;;;;;;;58.83;55.65;;;;;;;15.58;72.53;101732.00;5015694;28;102252;-53
2022/10/24 07:08:44;;;;;;;56.72;53.70;;;;;;;15.60;72.39;101738.03;5010254;28;103946;-53
2022/10/24 07:11:13;;;;;;;56.20;53.22;;;;;;;15.61;72.77;101728.72;5009914;28;102176;-53
2022/10/24 07:13:40;;;;;;;59.22;55.92;;;;;;;15.61;72.18;101736.94;5012975;28;102816;-53
2022/10/24 07:16:07;;;;;;;56.67;53.53;;;;;;;15.64;72.29;101735.53;5013322;28;102614;-54
2022/10/24 07:18:34;;;;;;;57.78;54.70;;;;;;;15.63;72.41;101729.22;5015982;28;103986;-53
2022/10/24 07:21:03;;;;;;;56.97;53.95;;;;;;;15.65;72.48;101719.88;5028856;27;102436;-53
2022/10/24 07:23:30;;;;;;;56.55;53.42;;;;;;;15.66;72.37;101722.41;5022358;27;102279;-54
2022/10/24 07:26:01;;;;;;;52.50;49.65;;;;;;;15.66;72.31;101716.91;5017038;28;102407;-53
2022/10/24 07:28:27;;;;;;;55.67;52.65;;;;;;;15.68;72.17;101722.09;5014767;28;104165;-54
2022/10/24 07:30:54;;;;;;;58.97;55.80;;;;;;;15.69;72.53;101721.03;5008839;28;102066;-54
2022/10/24 07:33:20;;;;;;;61.15;57.83;;;;;;;15.68;72.62;101720.19;5014421;28;102040;-53
2022/10/24 07:35:48;;;;;;;55.30;52.30;;;;;;;15.69;72.69;101721.03;5007315;28;102592;-53
2022/10/24 07:38:15;;;;;;;59.88;56.67;;;;;;;15.70;72.49;101722.66;5006861;28;104166;-53
2022/10/24 07:40:42;;;;;;;54.80;51.85;;;;;;;15.71;72.38;101716.88;5013987;28;102081;-54
2022/10/24 07:43:08;;;;;;;56.58;53.47;;;;;;;15.73;72.29;101719.34;5009260;28;102188;-53
2022/10/24 07:45:37;;;;;;;59.70;56.40;;;;;;;15.75;72.49;101725.38;5027465;28;102567;-53
2022/10/24 07:48:05;;;;;;;53.93;51.00;;;;;;;15.75;72.80;101717.13;5028131;27;103984;-53
2022/10/24 07:50:33;;;;;;;56.78;53.72;;;;;;;15.77;72.57;101712.19;5023170;27;102246;-53
2022/10/24 07:53:00;;;;;;;58.85;55.63;;;;;;;15.76;72.62;101705.88;5031013;27;102194;-53
2022/10/24 07:55:30;;;;;;;63.55;60.15;;;;;;;15.78;72.87;101713.81;5028922;27;102715;-54
2022/10/24 07:57:56;;;;;;;54.75;51.78;;;;;;;15.78;72.55;101719.31;5029680;28;103914;-54
2022/10/24 08:00:23;;;;;;;57.47;54.38;;;;;;;15.80;72.86;101722.63;5018957;27;102091;-53
2022/10/24 08:03:11;;;;;;;55.47;52.45;;;;;;;15.82;72.47;101712.16;4996615;28;102248;-54
2022/10/24 08:05:38;;;;;;;57.72;54.63;;;;;;;15.82;72.51;101715.72;5012466;27;104723;-53
2022/10/24 08:08:05;;;;;;;59.58;56.42;;;;;;;15.84;72.30;101712.72;5032504;27;103890;-53
2022/10/24 08:10:33;;;;;;;56.70;53.63;;;;;;;15.94;72.22;101723.63;5024036;27;102492;-53
2022/10/24 08:12:59;;;;;;;56.95;53.75;;;;;;;16.14;71.48;101721.88;5025634;28;102594;-54
2022/10/24 08:15:26;;;;;;;55.38;51.33;;;;;;;16.14;71.58;101716.38;5022470;27;103695;-54
2022/10/24 08:17:53;;;;;;;58.25;54.80;;;;;;;16.12;71.83;101724.06;5016352;27;104349;-55
2022/10/24 08:20:25;;;;;;;56.70;53.17;;;;;;;16.05;71.61;101727.97;5027237;27;102419;-54
2022/10/24 08:22:51;;;;;;;;;;;;;;;16.04;71.60;101729.03;5017172;28;102184;-55
2022/10/24 08:25:18;;;;;;;53.25;50.10;;;;;;;16.04;71.74;101734.53;5021625;27;102311;-54
2022/10/24 08:27:46;;;;;;;49.35;46.17;;;;;;;16.03;71.93;101730.16;5033364;27;103951;-55
2022/10/24 08:30:13;;;;;;;54.60;51.42;;;;;;;16.01;72.27;101726.91;5031856;27;102148;-54
2022/10/24 08:32:40;;;;;;;55.33;52.10;;;;;;;16.03;72.08;101726.59;5022578;27;104246;-54
2022/10/24 08:35:09;;;;;;;56.28;53.15;;;;;;;16.03;71.81;101738.41;5031766;27;102206;-54
2022/10/24 08:37:36;;;;;;;56.03;52.90;;;;;;;16.05;71.58;101736.19;5033558;27;104040;-54
2022/10/24 08:40:05;;;;;;;55.25;51.47;;;;;;;16.06;71.66;101732.34;5028336;27;102193;-54
2022/10/24 08:42:33;;;;;;;60.65;57.10;;;;;;;16.06;72.10;101735.09;5019693;27;102494;-55
2022/10/24 08:45:01;;;;;;;59.83;56.42;;;;;;;16.04;71.84;101739.22;5035060;27;102260;-55
2022/10/24 08:47:35;;;;;;;57.28;53.95;;;;;;;16.04;72.03;101736.47;5033722;27;103902;-55
2022/10/24 08:50:05;;;;;;;56.10;53.03;;;;;;;16.05;71.83;101743.63;5023494;27;102398;-55
2022/10/24 08:52:38;;;;;;;55.80;52.58;;;;;;;16.05;72.04;101747.19;5025198;27;102500;-54
2022/10/24 08:59:05;;;;;;;54.67;51.47;;;;;;;16.04;72.31;101739.22;5030533;27;104366;-54
2022/10/24 09:01:41;;;;;;;53.90;50.92;;;;;;;16.02;71.87;101734.03;4999009;28;102304;-54
2022/10/24 09:04:12;;;;;;;52.22;49.22;;;;;;;16.04;71.84;101744.72;5004198;28;102614;-54
2022/10/24 09:06:39;;;;;;;55.80;52.60;;;;;;;16.03;72.21;101746.63;5013051;28;102539;-54
2022/10/24 09:09:16;;;;;;;54.03;51.03;;;;;;;16.04;72.07;101741.97;5011424;28;104077;-54
2022/10/24 09:11:49;;;;;;;51.90;49.00;;;;;;;16.04;72.07;101744.72;4998675;28;102556;-54
2022/10/24 09:14:18;;;;;;;52.95;50.03;;;;;;;16.05;72.15;101740.88;5003647;28;102177;-54
2022/10/24 09:16:51;;;;;;;52.25;49.28;;;;;;;16.04;71.85;101744.72;5005472;28;102294;-55
2022/10/24 09:19:20;;;;;;;51.70;48.75;;;;;;;16.03;72.00;101752.13;5007670;27;103941;-54
2022/10/24 09:21:48;;;;;;;55.90;52.67;;;;;;;16.02;72.01;101753.25;5014344;28;102516;-54
2022/10/24 09:24:27;;;;;;;58.50;55.17;;;;;;;16.05;72.25;101758.16;5009588;28;102456;-62
2022/10/24 09:26:54;;;;;;;52.45;48.88;;;;;;;16.12;71.14;101755.13;5007502;28;102345;-56
2022/10/24 09:29:20;;;;;;;55.17;50.40;;;;;;;16.10;71.50;101749.91;5008576;28;103862;-56
2022/10/24 09:31:48;;;;;;;55.13;50.97;;;;;;;16.08;71.68;101748.53;5012086;28;102381;-57
2022/10/24 09:34:15;;;;;;;52.60;48.78;;;;;;;16.06;71.93;101753.50;5010816;28;102399;-57
2022/10/24 09:36:43;;;;;;;56.00;52.22;;;;;;;16.05;71.89;101751.88;5027434;27;102294;-56
2022/10/24 09:39:26;;;;;;;56.42;52.05;;;;;;;16.01;72.04;101754.34;5028859;27;104094;-56
2022/10/24 09:41:53;;;;;;;51.80;47.88;;;;;;;16.03;71.71;101754.06;5033230;27;102127;-56
2022/10/24 09:44:40;;;;;;;54.33;50.95;;;;;;;16.01;72.08;101748.88;5030217;27;102487;-56
2022/10/24 09:47:23;;;;;;;56.85;53.03;;;;;;;16.00;71.75;101749.94;5031076;27;102227;-57
2022/10/24 09:49:51;;;;;;;53.28;49.88;;;;;;;16.00;71.63;101747.19;5015725;28;103910;-56
2022/10/24 09:52:20;;;;;;;55.25;51.55;;;;;;;16.01;71.95;101750.75;5015974;27;102335;-56
2022/10/24 09:55:04;;;;;;;51.95;48.90;;;;;;;15.99;71.69;101748.31;5023553;28;102543;-56
2022/10/24 09:57:37;;;;;;;52.63;49.00;;;;;;;16.00;72.12;101743.63;5032934;27;102352;-56
2022/10/24 10:00:06;;;;;;;50.65;47.63;;;;;;;16.00;72.14;101741.72;5027451;27;103836;-56
2022/10/24 10:02:35;;;;;;;56.22;52.88;;;;;;;15.99;71.88;101737.31;5032522;27;102733;-56
2022/10/24 10:05:18;;;;;;;56.47;52.80;;;;;;;16.00;71.65;101738.97;5035951;27;102964;-56
2022/10/24 10:07:47;;;;;;;49.03;45.75;;;;;;;15.99;71.80;101733.75;5034736;27;102611;-56
2022/10/24 10:10:32;;;;;;;55.08;51.85;;;;;;;15.98;71.74;101735.69;5037084;27;104025;-56
2022/10/24 10:13:03;;;;;;;55.20;52.00;;;;;;;15.99;71.91;101725.53;5032872;27;102507;-56
2022/10/24 10:15:34;;;;;;;48.90;46.22;;;;;;;15.99;71.95;101726.34;5031701;28;103686;-56
2022/10/24 10:18:20;;;;;;;57.22;53.80;;;;;;;16.00;71.97;101730.72;5037004;27;102151;-56
2022/10/24 10:20:59;;;;;;;49.90;46.97;;;;;;;15.99;71.95;101715.38;5035194;28;104057;-56
2022/10/24 10:23:30;;;;;;;52.17;49.13;;;;;;;15.98;72.16;101724.72;5037657;27;102415;-57
2022/10/24 10:26:28;;;;;;;50.35;46.90;;;;;;;15.97;71.93;101723.06;5024198;27;102410;-57
2022/10/24 10:28:58;;;;;;;54.40;51.17;;;;;;;15.98;71.76;101724.72;5014288;28;102266;-56
2022/10/24 10:31:35;;;;;;;49.08;46.35;;;;;;;15.98;71.96;101718.41;5030655;28;103942;-56
2022/10/24 10:34:21;;;;;;;57.05;53.75;;;;;;;15.97;71.72;101722.22;5026326;27;102466;-56
2022/10/24 10:37:23;;;;;;;50.50;47.58;;;;;;;15.96;71.96;101715.94;5030696;27;102001;-56
2022/10/24 10:40:12;;;;;;;54.58;51.55;;;;;;;15.97;71.74;101717.56;4994697;28;102430;-56
2022/10/24 10:42:50;;;;;;;48.97;46.20;;;;;;;15.98;72.12;101713.72;5024357;28;107983;-57
2022/10/24 10:45:27;;;;;;;51.78;48.85;;;;;;;15.97;71.68;101712.06;5035885;27;102837;-57
2022/10/24 10:48:06;;;;;;;53.47;50.55;;;;;;;15.99;71.92;101717.28;5015849;28;102281;-57
2022/10/24 10:50:40;;;;;;;50.65;47.85;;;;;;;15.99;71.96;101709.88;5014824;28;102229;-56
2022/10/24 10:53:24;;;;;;;51.55;48.80;;;;;;;15.98;71.80;101711.00;5033411;27;104105;-56
2022/10/24 10:55:57;;;;;;;55.42;52.33;;;;;;;15.99;71.89;101704.38;5035117;27;102454;-57
2022/10/24 10:58:32;;;;;;;52.72;49.83;;;;;;;15.98;71.76;101694.50;5037441;27;102217;-57
2022/10/24 11:01:11;;;;;;;50.05;47.22;;;;;;;15.98;72.07;101702.75;5030971;27;102430;-56
2022/10/24 11:03:39;;;;;;;;;;;;;;;15.96;72.08;101688.47;5034618;27;103924;-57
2022/10/24 11:06:19;;;;;;;;;;;;;;;15.97;71.93;101698.34;5037863;27;101941;-56
2022/10/24 11:09:05;;;;;;;38.45;36.17;;;;;;;15.96;71.92;101691.22;5031611;27;102311;-57
2022/10/24 11:11:37;;;;;;;48.38;45.72;;;;;;;15.97;71.99;101690.09;5037766;27;102218;-56
2022/10/24 11:14:15;;;;;;;46.97;44.08;;;;;;;16.05;70.97;101684.03;5021186;27;108151;-57
2022/10/24 11:16:45;;;;;;;47.42;44.58;;;;;;;16.20;69.65;101682.28;5023997;27;102378;-55
2022/10/24 11:19:22;;;;;;;47.65;44.50;;;;;;;16.21;69.23;101678.44;5016024;28;101981;-55
2022/10/24 11:21:51;;;;;;;47.85;45.08;;;;;;;16.24;68.71;101681.44;5027447;28;102728;-55